createdAt,value
2023-05-20T00:01:08.175Z,18.70
2023-05-20T00:03:35.248Z,19.60
2023-05-20T00:06:02.385Z,19.90
2023-05-20T00:08:29.315Z,25.00
2023-05-20T00:10:56.247Z,25.80
2023-05-20T00:13:24.496Z,27.40
2023-05-20T00:15:52.211Z,27.70
2023-05-20T00:18:19.254Z,28.30
2023-05-20T00:20:46.522Z,27.10
2023-05-20T00:23:13.435Z,28.40
2023-05-20T00:25:40.292Z,28.30
2023-05-20T00:28:07.307Z,30.10
2023-05-20T00:30:34.431Z,28.10
2023-05-20T00:33:01.495Z,27.10
2023-05-20T00:35:28.716Z,27.80
2023-05-20T00:37:55.589Z,27.30
2023-05-20T00:40:23.584Z,27.20
2023-05-20T00:42:50.863Z,28.40
2023-05-20T00:45:17.812Z,27.70
2023-05-20T00:47:44.704Z,26.00
2023-05-20T00:50:11.939Z,24.70
2023-05-20T00:52:39.613Z,23.80
2023-05-20T00:55:06.606Z,22.50
2023-05-20T00:57:33.561Z,23.10
2023-05-20T01:00:00.558Z,22.50
2023-05-20T01:02:27.530Z,21.80
2023-05-20T01:04:56.837Z,20.30
2023-05-20T01:07:24.068Z,20.70
2023-05-20T01:09:52.594Z,19.30
2023-05-20T01:12:23.876Z,17.50
2023-05-20T01:14:51.463Z,17.40
2023-05-20T01:17:21.139Z,18.60
2023-05-20T01:19:48.907Z,18.20
2023-05-20T01:22:16.430Z,17.40
2023-05-20T01:24:43.874Z,17.40
2023-05-20T01:27:11.181Z,18.40
2023-05-20T01:29:38.187Z,19.00
2023-05-20T01:32:09.779Z,17.90
2023-05-20T01:34:37.027Z,18.00
2023-05-20T01:37:04.540Z,19.20
2023-05-20T01:39:31.538Z,18.70
2023-05-20T01:41:58.846Z,19.70
2023-05-20T01:44:26.577Z,20.70
2023-05-20T01:46:53.947Z,18.80
2023-05-20T01:49:21.668Z,18.10
2023-05-20T01:51:48.528Z,17.10
2023-05-20T01:54:15.402Z,16.20
2023-05-20T01:59:36.065Z,15.50
2023-05-20T02:02:03.242Z,14.90
2023-05-20T02:04:30.183Z,16.20
2023-05-20T02:06:57.153Z,16.60
2023-05-20T02:09:24.240Z,16.40
2023-05-20T02:11:52.699Z,15.10
2023-05-20T02:14:19.626Z,16.00
2023-05-20T02:16:46.855Z,14.60
2023-05-20T02:19:13.896Z,15.40
2023-05-20T02:21:41.569Z,16.00
2023-05-20T02:24:10.191Z,16.80
2023-05-20T02:26:37.229Z,17.00
2023-05-20T02:29:04.160Z,18.10
2023-05-20T02:31:31.087Z,18.00
2023-05-20T02:33:58.080Z,18.60
2023-05-20T02:36:27.687Z,17.20
2023-05-20T02:38:56.924Z,16.10
2023-05-20T02:41:23.830Z,17.10
2023-05-20T02:43:50.867Z,16.50
2023-05-20T02:46:19.771Z,17.30
2023-05-20T02:48:46.633Z,17.40
2023-05-20T02:51:13.810Z,16.30
2023-05-20T02:53:41.286Z,16.40
2023-05-20T02:56:09.387Z,16.30
2023-05-20T02:58:36.432Z,17.30
2023-05-20T03:01:03.574Z,16.80
2023-05-20T03:03:30.525Z,16.90
2023-05-20T03:05:57.503Z,16.80
2023-05-20T03:08:24.556Z,16.70
2023-05-20T03:10:51.830Z,16.20
2023-05-20T03:13:18.835Z,16.00
2023-05-20T03:15:46.120Z,16.40
2023-05-20T03:18:13.870Z,16.10
2023-05-20T03:20:41.743Z,14.40
2023-05-20T03:23:09.467Z,16.10
2023-05-20T03:25:37.134Z,15.90
2023-05-20T03:28:04.497Z,16.90
2023-05-20T03:30:33.413Z,17.30
2023-05-20T03:33:00.441Z,15.80
2023-05-20T03:35:27.539Z,15.60
2023-05-20T03:37:54.794Z,15.10
2023-05-20T03:40:23.351Z,17.20
2023-05-20T03:42:52.601Z,17.40
2023-05-20T03:45:20.813Z,16.90
2023-05-20T03:48:20.688Z,16.40
2023-05-20T03:50:49.451Z,16.60
2023-05-20T03:53:17.584Z,13.90
2023-05-20T03:55:44.705Z,13.60
2023-05-20T03:58:13.602Z,13.90
2023-05-20T04:00:40.503Z,14.60
2023-05-20T04:03:07.765Z,13.50
2023-05-20T04:05:35.648Z,14.90
2023-05-20T04:08:05.007Z,14.10
2023-05-20T04:10:34.952Z,14.70
2023-05-20T04:13:02.069Z,13.30
2023-05-20T04:15:29.902Z,13.70
2023-05-20T04:17:57.495Z,14.60
2023-05-20T04:20:24.700Z,13.60
2023-05-20T04:22:55.251Z,13.80
2023-05-20T04:25:22.332Z,13.90
2023-05-20T04:27:49.897Z,14.30
2023-05-20T04:30:20.575Z,13.90
2023-05-20T04:32:48.454Z,13.40
2023-05-20T04:35:15.390Z,13.30
2023-05-20T04:37:50.914Z,14.10
2023-05-20T04:40:17.840Z,13.70
2023-05-20T04:42:45.025Z,14.70
2023-05-20T04:45:12.619Z,15.80
2023-05-20T04:47:40.338Z,13.20
2023-05-20T04:50:10.913Z,13.20
2023-05-20T04:52:42.048Z,13.40
2023-05-20T04:55:10.464Z,12.00
2023-05-20T04:57:40.250Z,12.10
2023-05-20T05:00:08.072Z,11.80
2023-05-20T05:02:35.610Z,11.40
2023-05-20T05:05:03.585Z,11.50
2023-05-20T05:07:30.989Z,11.90
2023-05-20T05:09:57.942Z,11.50
2023-05-20T05:12:24.923Z,12.60
2023-05-20T05:14:51.948Z,11.90
2023-05-20T05:17:18.798Z,12.00
2023-05-20T05:19:45.750Z,12.00
2023-05-20T05:22:12.719Z,13.80
2023-05-20T05:24:39.826Z,13.40
2023-05-20T05:27:06.730Z,15.00
2023-05-20T05:29:34.601Z,14.60
2023-05-20T05:32:01.542Z,16.50
2023-05-20T05:34:28.629Z,17.40
2023-05-20T05:36:56.194Z,19.50
2023-05-20T05:39:23.122Z,19.70
2023-05-20T05:41:50.044Z,18.20
2023-05-20T05:44:17.205Z,19.20
2023-05-20T05:46:44.391Z,21.30
2023-05-20T05:49:11.435Z,21.80
2023-05-20T05:51:39.200Z,21.30
2023-05-20T05:54:06.412Z,21.40
2023-05-20T05:56:33.360Z,21.00
2023-05-20T05:59:00.667Z,20.80
2023-05-20T06:01:27.986Z,19.50
2023-05-20T06:03:55.434Z,19.10
2023-05-20T06:06:22.740Z,17.60
2023-05-20T06:08:49.655Z,16.00
2023-05-20T06:11:16.803Z,13.70
2023-05-20T06:13:44.156Z,14.10
2023-05-20T06:16:11.158Z,13.90
2023-05-20T06:18:38.194Z,15.40
2023-05-20T06:21:06.317Z,13.50
2023-05-20T06:23:33.329Z,12.70
2023-05-20T06:26:03.868Z,14.10
2023-05-20T06:28:30.980Z,13.00
2023-05-20T06:30:57.945Z,12.60
2023-05-20T06:33:27.298Z,10.80
2023-05-20T06:35:55.939Z,10.80
2023-05-20T06:38:23.144Z,11.80
2023-05-20T06:40:50.756Z,11.00
2023-05-20T06:43:18.084Z,11.30
2023-05-20T06:45:54.406Z,11.00
2023-05-20T06:48:30.534Z,11.20
2023-05-20T06:50:57.932Z,10.60
2023-05-20T06:53:24.893Z,10.20
2023-05-20T06:55:53.588Z,10.40
2023-05-20T06:58:20.864Z,9.80
2023-05-20T07:00:48.089Z,9.50
2023-05-20T07:03:15.723Z,10.10
2023-05-20T07:05:42.632Z,9.00
2023-05-20T07:08:11.593Z,9.40
2023-05-20T07:10:39.177Z,9.50
2023-05-20T07:13:06.422Z,8.90
2023-05-20T07:15:33.535Z,9.10
2023-05-20T07:18:00.933Z,9.80
2023-05-20T07:20:28.017Z,8.90
2023-05-20T07:22:55.685Z,9.50
2023-05-20T07:25:30.896Z,9.60
2023-05-20T07:27:57.907Z,9.50
2023-05-20T07:30:24.982Z,9.20
2023-05-20T07:33:08.626Z,8.80
2023-05-20T07:35:35.781Z,9.10
2023-05-20T07:38:03.097Z,9.10
2023-05-20T07:40:30.417Z,9.70
2023-05-20T07:42:57.398Z,8.50
2023-05-20T07:45:24.426Z,8.80
2023-05-20T07:47:51.484Z,8.60
2023-05-20T07:50:18.444Z,9.30
2023-05-20T07:52:56.035Z,9.30
2023-05-20T07:55:26.413Z,9.20
2023-05-20T07:57:53.375Z,8.90
2023-05-20T08:00:21.524Z,9.30
2023-05-20T08:02:48.581Z,9.10
2023-05-20T08:05:19.243Z,9.30
2023-05-20T08:07:46.256Z,9.10
2023-05-20T08:10:13.736Z,9.30
2023-05-20T08:12:42.058Z,8.60
2023-05-20T08:15:09.190Z,8.10
2023-05-20T08:17:36.395Z,9.90
2023-05-20T08:20:03.397Z,11.10
2023-05-20T08:22:30.332Z,10.80
2023-05-20T08:24:57.341Z,10.70
2023-05-20T08:27:24.230Z,11.20
2023-05-20T08:29:51.183Z,10.20
2023-05-20T08:32:18.519Z,8.80
2023-05-20T08:34:45.548Z,13.70
2023-05-20T08:37:12.445Z,9.30
2023-05-20T08:39:39.527Z,7.00
2023-05-20T08:42:08.157Z,5.10
2023-05-20T08:44:35.136Z,5.30
2023-05-20T08:47:04.008Z,5.20
2023-05-20T08:49:31.824Z,5.70
2023-05-20T08:51:59.331Z,4.70
2023-05-20T08:54:26.818Z,4.60
2023-05-20T08:56:54.270Z,4.50
2023-05-20T08:59:21.142Z,4.20
2023-05-20T09:01:48.170Z,4.90
2023-05-20T09:04:15.073Z,4.80
2023-05-20T09:06:45.730Z,5.30
2023-05-20T09:09:13.040Z,5.20
2023-05-20T09:11:40.812Z,5.00
2023-05-20T09:14:07.919Z,4.30
2023-05-20T09:16:35.168Z,5.30
2023-05-20T09:19:02.146Z,4.50
2023-05-20T09:21:29.355Z,4.30
2023-05-20T09:23:59.292Z,4.90
2023-05-20T09:26:30.117Z,4.60
2023-05-20T09:28:57.496Z,5.00
2023-05-20T09:31:28.615Z,4.40
2023-05-20T09:33:55.776Z,4.50
2023-05-20T09:36:23.145Z,4.70
2023-05-20T09:38:53.234Z,4.10
2023-05-20T09:41:22.108Z,4.50
2023-05-20T09:43:49.740Z,4.40
2023-05-20T09:46:16.782Z,4.20
2023-05-20T09:48:43.682Z,4.30
2023-05-20T09:51:11.123Z,3.60
2023-05-20T09:53:38.134Z,4.20
2023-05-20T09:56:05.159Z,4.30
2023-05-20T09:58:32.349Z,4.10
2023-05-20T10:00:59.366Z,4.10
2023-05-20T10:03:28.408Z,3.90
2023-05-20T10:06:00.019Z,3.50
2023-05-20T10:08:29.986Z,3.70
2023-05-20T10:11:12.942Z,3.80
2023-05-20T10:14:00.729Z,3.60
2023-05-20T10:16:46.843Z,3.60
2023-05-20T10:19:13.763Z,3.70
2023-05-20T10:21:40.831Z,3.60
2023-05-20T10:24:08.450Z,3.30
2023-05-20T10:26:39.075Z,3.10
2023-05-20T10:29:16.090Z,3.60
2023-05-20T10:31:49.601Z,4.30
2023-05-20T10:34:19.663Z,3.40
2023-05-20T10:37:07.185Z,3.60
2023-05-20T10:39:34.833Z,3.80
2023-05-20T10:42:08.480Z,3.60
2023-05-20T10:44:42.843Z,3.90
2023-05-20T10:47:24.352Z,3.80
2023-05-20T10:49:52.864Z,4.50
2023-05-20T10:52:19.866Z,3.90
2023-05-20T10:54:57.142Z,4.00
2023-05-20T10:57:24.555Z,3.90
2023-05-20T10:59:51.760Z,4.40
2023-05-20T11:02:18.727Z,4.40
2023-05-20T11:04:45.982Z,4.20
2023-05-20T11:07:13.182Z,4.10
2023-05-20T11:09:40.161Z,4.40
2023-05-20T11:12:07.132Z,4.20
2023-05-20T11:14:35.206Z,3.80
2023-05-20T11:17:02.270Z,3.70
2023-05-20T11:19:29.529Z,4.00
2023-05-20T11:21:56.646Z,4.10
2023-05-20T11:24:28.041Z,4.40
2023-05-20T11:26:56.160Z,4.00
2023-05-20T11:29:23.461Z,3.60
2023-05-20T11:31:53.326Z,3.70
2023-05-20T11:34:23.999Z,4.10
2023-05-20T11:36:59.121Z,4.10
2023-05-20T11:41:54.434Z,3.60
2023-05-20T11:44:21.692Z,3.60
2023-05-20T11:46:48.755Z,3.50
2023-05-20T11:49:15.830Z,3.40
2023-05-20T11:51:43.493Z,3.70
2023-05-20T11:54:10.844Z,3.60
2023-05-20T11:56:37.975Z,3.30
2023-05-20T11:59:05.492Z,3.90
2023-05-20T12:01:37.853Z,3.90
2023-05-20T12:04:05.679Z,3.80
2023-05-20T12:06:32.998Z,3.50
2023-05-20T12:09:07.453Z,3.70
2023-05-20T12:11:37.854Z,3.90
2023-05-20T12:14:04.792Z,3.60
2023-05-20T12:16:32.397Z,4.10
2023-05-20T12:18:59.337Z,3.70
2023-05-20T12:21:26.266Z,3.80
2023-05-20T12:23:58.111Z,3.90
2023-05-20T12:26:25.972Z,4.20
2023-05-20T12:28:53.029Z,3.80
2023-05-20T12:31:20.086Z,3.50
2023-05-20T12:33:47.062Z,3.70
2023-05-20T12:36:14.225Z,3.80
2023-05-20T12:38:41.476Z,3.40
2023-05-20T12:41:08.611Z,3.70
2023-05-20T12:43:36.824Z,3.50
2023-05-20T12:46:04.288Z,3.60
2023-05-20T12:48:31.366Z,3.50
2023-05-20T12:50:58.281Z,3.40
2023-05-20T12:53:25.606Z,3.60
2023-05-20T12:55:52.620Z,3.40
2023-05-20T12:58:19.515Z,3.70
2023-05-20T13:00:46.497Z,3.40
2023-05-20T13:03:13.562Z,3.40
2023-05-20T13:05:40.596Z,3.40
2023-05-20T13:08:09.201Z,3.50
2023-05-20T13:10:36.550Z,3.90
2023-05-20T13:13:03.659Z,3.60
2023-05-20T13:15:33.528Z,3.70
2023-05-20T13:18:01.792Z,3.90
2023-05-20T13:20:29.714Z,3.50
2023-05-20T13:22:56.702Z,3.70
2023-05-20T13:25:23.584Z,3.60
2023-05-20T13:27:51.095Z,3.70
2023-05-20T13:30:18.139Z,3.60
2023-05-20T13:32:45.175Z,3.80
2023-05-20T13:35:13.294Z,3.70
2023-05-20T13:37:40.312Z,3.50
2023-05-20T13:40:07.835Z,3.80
2023-05-20T13:42:34.791Z,3.90
2023-05-20T13:45:01.834Z,3.90
2023-05-20T13:47:28.880Z,3.70
2023-05-20T13:49:55.786Z,3.70
2023-05-20T13:52:22.816Z,3.70
2023-05-20T13:54:49.704Z,3.70
2023-05-20T13:57:16.614Z,4.00
2023-05-20T13:59:43.789Z,4.00
2023-05-20T14:02:11.305Z,3.50
2023-05-20T14:04:40.217Z,3.60
2023-05-20T14:07:09.631Z,3.30
2023-05-20T14:09:37.068Z,3.80
2023-05-20T14:12:04.504Z,3.70
2023-05-20T14:17:15.584Z,3.90
2023-05-20T14:19:42.498Z,4.00
2023-05-20T14:22:09.448Z,3.60
2023-05-20T14:24:36.368Z,3.40
2023-05-20T14:27:03.442Z,3.40
2023-05-20T14:29:30.347Z,3.90
2023-05-20T14:31:57.613Z,3.60
2023-05-20T14:34:24.623Z,3.30
2023-05-20T14:36:51.517Z,3.10
2023-05-20T14:39:18.456Z,3.90
2023-05-20T14:41:45.583Z,3.90
2023-05-20T14:44:12.466Z,3.60
2023-05-20T14:46:39.566Z,3.50
2023-05-20T14:49:06.485Z,3.80
2023-05-20T14:51:33.420Z,3.70
2023-05-20T14:54:00.412Z,3.60
2023-05-20T14:56:27.364Z,3.40
2023-05-20T14:58:54.248Z,3.80
2023-05-20T15:01:21.266Z,3.60
2023-05-20T15:03:48.262Z,3.60
2023-05-20T15:06:15.146Z,3.80
2023-05-20T15:08:42.898Z,3.60
2023-05-20T15:11:10.032Z,3.90
2023-05-20T15:13:38.314Z,3.70
2023-05-20T15:16:07.439Z,3.50
2023-05-20T15:18:34.318Z,3.30
2023-05-20T15:21:01.593Z,3.90
2023-05-20T15:23:28.541Z,4.10
2023-05-20T15:25:55.503Z,4.30
2023-05-20T15:28:22.456Z,4.40
2023-05-20T15:30:51.746Z,4.50
2023-05-20T15:33:18.788Z,4.60
2023-05-20T15:35:45.870Z,5.50
2023-05-20T15:38:13.298Z,4.90
2023-05-20T15:40:40.395Z,6.40
2023-05-20T15:43:07.287Z,4.90
2023-05-20T15:45:34.317Z,5.40
2023-05-20T15:48:01.355Z,5.40
2023-05-20T15:50:28.577Z,5.00
2023-05-20T15:52:55.664Z,6.10
2023-05-20T15:55:25.710Z,6.40
2023-05-20T15:57:52.789Z,6.40
2023-05-20T16:00:20.348Z,8.20
2023-05-20T16:02:47.621Z,10.40
2023-05-20T16:05:14.858Z,7.60
2023-05-20T16:07:42.326Z,7.90
2023-05-20T16:10:09.839Z,7.80
2023-05-20T16:12:36.697Z,6.20
2023-05-20T16:15:04.165Z,6.40
2023-05-20T16:17:31.144Z,5.50
2023-05-20T16:19:58.069Z,5.80
2023-05-20T16:22:25.079Z,5.20
2023-05-20T16:24:52.049Z,4.80
2023-05-20T16:27:18.958Z,4.90
2023-05-20T16:29:46.087Z,5.30
2023-05-20T16:32:13.340Z,5.30
2023-05-20T16:34:40.240Z,5.90
2023-05-20T16:37:07.521Z,5.80
2023-05-20T16:39:34.633Z,6.40
2023-05-20T16:42:01.703Z,8.10
2023-05-20T16:44:28.664Z,8.20
2023-05-20T16:46:55.609Z,7.90
2023-05-20T16:49:22.512Z,7.90
2023-05-20T16:51:51.060Z,8.00
2023-05-20T16:54:18.348Z,7.80
2023-05-20T16:56:45.199Z,7.80
2023-05-20T16:59:14.830Z,7.40
2023-05-20T17:01:41.804Z,9.10
2023-05-20T17:04:09.049Z,6.10
2023-05-20T17:06:36.138Z,6.10
2023-05-20T17:09:04.762Z,5.30
2023-05-20T17:11:31.934Z,6.10
2023-05-20T17:13:58.928Z,5.40
2023-05-20T17:16:26.021Z,4.70
2023-05-20T17:18:53.752Z,5.40
2023-05-20T17:21:20.848Z,5.20
2023-05-20T17:23:47.800Z,4.90
2023-05-20T17:26:14.853Z,5.30
2023-05-20T17:28:41.889Z,5.20
2023-05-20T17:31:09.903Z,5.00
2023-05-20T17:33:37.112Z,5.10
2023-05-20T17:36:04.225Z,5.10
2023-05-20T17:38:31.137Z,5.60
2023-05-20T17:40:58.044Z,5.80
2023-05-20T17:43:28.070Z,5.90
2023-05-20T17:45:55.076Z,5.50
2023-05-20T17:48:22.002Z,4.80
2023-05-20T17:50:49.000Z,5.10
2023-05-20T17:53:15.976Z,5.10
2023-05-20T17:55:47.047Z,5.20
2023-05-20T17:58:14.168Z,4.60
2023-05-20T18:00:42.879Z,4.80
2023-05-20T18:03:10.098Z,5.10
2023-05-20T18:05:37.399Z,4.50
2023-05-20T18:08:04.522Z,4.50
2023-05-20T18:10:31.488Z,4.60
2023-05-20T18:12:58.492Z,4.10
2023-05-20T18:15:25.660Z,4.30
2023-05-20T18:17:52.628Z,4.00
2023-05-20T18:20:19.741Z,4.10
2023-05-20T18:22:46.827Z,4.10
2023-05-20T18:25:14.241Z,4.20
2023-05-20T18:27:41.453Z,3.70
2023-05-20T18:30:08.896Z,5.00
2023-05-20T18:32:36.386Z,4.40
2023-05-20T18:35:03.413Z,4.00
2023-05-20T18:37:30.924Z,4.60
2023-05-20T18:39:58.944Z,5.00
2023-05-20T18:42:26.014Z,4.50
2023-05-20T18:44:53.155Z,4.50
2023-05-20T18:47:20.107Z,4.80
2023-05-20T18:49:47.055Z,4.50
2023-05-20T18:52:14.096Z,4.40
2023-05-20T18:54:41.241Z,4.30
2023-05-20T18:57:08.754Z,4.70
2023-05-20T18:59:35.746Z,5.00
2023-05-20T19:02:02.650Z,4.50
2023-05-20T19:04:29.681Z,4.50
2023-05-20T19:06:57.100Z,4.20
2023-05-20T19:09:23.973Z,5.20
2023-05-20T19:11:56.213Z,4.80
2023-05-20T19:14:23.097Z,4.90
2023-05-20T19:16:50.036Z,4.60
2023-05-20T19:19:17.108Z,5.20
2023-05-20T19:21:44.493Z,5.80
2023-05-20T19:24:11.694Z,5.60
2023-05-20T19:26:38.970Z,5.50
2023-05-20T19:29:07.028Z,5.10
2023-05-20T19:31:34.104Z,5.00
2023-05-20T19:34:01.597Z,5.10
2023-05-20T19:36:28.709Z,4.90
2023-05-20T19:38:56.130Z,5.00
2023-05-20T19:41:23.104Z,4.40
2023-05-20T19:43:50.103Z,4.90
2023-05-20T19:46:17.042Z,4.90
2023-05-20T19:48:44.006Z,4.70
2023-05-20T19:51:11.090Z,3.90
2023-05-20T19:53:40.835Z,4.50
2023-05-20T19:56:11.132Z,4.30
2023-05-20T19:58:38.073Z,5.00
2023-05-20T20:01:06.791Z,4.90
2023-05-20T20:03:34.449Z,4.30
2023-05-20T20:06:01.660Z,4.50
2023-05-20T20:08:28.580Z,4.80
2023-05-20T20:10:55.700Z,4.90
2023-05-20T20:13:22.638Z,4.40
2023-05-20T20:15:49.538Z,4.20
2023-05-20T20:18:16.608Z,4.60
2023-05-20T20:20:43.553Z,4.90
2023-05-20T20:23:10.826Z,4.90
2023-05-20T20:25:39.126Z,4.60
2023-05-20T20:28:06.396Z,4.60
2023-05-20T20:30:33.381Z,4.80
2023-05-20T20:33:00.550Z,5.20
2023-05-20T20:35:27.482Z,4.90
2023-05-20T20:37:54.516Z,5.60
2023-05-20T20:40:21.940Z,6.20
2023-05-20T20:42:49.103Z,5.60
2023-05-20T20:45:16.063Z,5.40
2023-05-20T20:47:44.118Z,5.50
2023-05-20T20:50:11.968Z,5.70
2023-05-20T20:52:39.154Z,5.10
2023-05-20T20:55:06.738Z,5.80
2023-05-20T20:57:35.318Z,5.20
2023-05-20T21:00:06.877Z,5.50
2023-05-20T21:02:33.864Z,6.00
2023-05-20T21:05:02.205Z,5.70
2023-05-20T21:07:30.284Z,5.60
2023-05-20T21:09:57.307Z,5.90
2023-05-20T21:12:24.381Z,5.60
2023-05-20T21:14:51.385Z,5.90
2023-05-20T21:17:18.375Z,5.80
2023-05-20T21:19:45.302Z,5.70
2023-05-20T21:22:12.613Z,5.60
2023-05-20T21:24:39.487Z,5.60
2023-05-20T21:27:06.415Z,6.50
2023-05-20T21:29:35.418Z,6.20
2023-05-20T21:32:02.328Z,5.70
2023-05-20T21:34:29.207Z,6.80
2023-05-20T21:36:56.369Z,6.70
2023-05-20T21:39:23.391Z,6.70
2023-05-20T21:41:50.370Z,7.20
2023-05-20T21:44:17.332Z,7.50
2023-05-20T21:46:44.462Z,7.10
2023-05-20T21:49:11.490Z,7.40
2023-05-20T21:51:38.435Z,6.90
2023-05-20T21:54:05.528Z,7.20
2023-05-20T21:56:32.422Z,7.10
2023-05-20T21:58:59.465Z,7.40
2023-05-20T22:01:26.530Z,7.20
2023-05-20T22:03:53.738Z,6.70
2023-05-20T22:06:21.718Z,6.60
2023-05-20T22:08:49.162Z,6.80
2023-05-20T22:11:16.090Z,6.60
2023-05-20T22:13:43.416Z,6.70
2023-05-20T22:16:11.330Z,6.50
2023-05-20T22:18:38.641Z,6.30
2023-05-20T22:21:06.171Z,6.90
2023-05-20T22:23:33.057Z,6.50
2023-05-20T22:25:59.985Z,6.40
2023-05-20T22:28:26.890Z,6.60
2023-05-20T22:30:54.865Z,5.70
2023-05-20T22:33:23.038Z,6.20
2023-05-20T22:35:50.272Z,6.80
2023-05-20T22:38:17.304Z,5.70
2023-05-20T22:40:44.182Z,5.40
2023-05-20T22:43:13.325Z,5.50
2023-05-20T22:45:40.561Z,5.60
2023-05-20T22:48:07.763Z,5.50
2023-05-20T22:50:35.590Z,5.20
2023-05-20T22:53:03.059Z,5.30
2023-05-20T22:55:29.962Z,5.50
2023-05-20T22:57:56.883Z,5.20
2023-05-20T23:00:24.032Z,5.00
2023-05-20T23:02:52.608Z,4.70
2023-05-20T23:05:19.664Z,5.10
2023-05-20T23:07:46.674Z,5.00
2023-05-20T23:10:13.564Z,4.10
2023-05-20T23:12:40.599Z,4.40
2023-05-20T23:15:08.229Z,4.70
2023-05-20T23:17:35.173Z,4.10
2023-05-20T23:20:05.313Z,4.20
2023-05-20T23:22:33.009Z,4.50
2023-05-20T23:24:59.940Z,4.30
2023-05-20T23:27:27.247Z,4.00
2023-05-20T23:29:54.121Z,4.10
2023-05-20T23:32:20.971Z,4.00
2023-05-20T23:34:47.923Z,4.70
2023-05-20T23:37:14.890Z,3.80
2023-05-20T23:39:41.825Z,3.90
2023-05-20T23:42:08.758Z,3.70
2023-05-20T23:44:35.648Z,4.00
2023-05-20T23:47:03.832Z,3.90
2023-05-20T23:49:32.240Z,4.00
2023-05-20T23:51:59.192Z,3.60
2023-05-20T23:54:26.101Z,4.00
2023-05-20T23:56:53.007Z,4.00
2023-05-20T23:59:19.996Z,3.80
